Muzaffargarh Weather



Muzaffargarh's Current Weather

Temprature 38.01o few clouds

few clouds

Rain: 0 %

Min Temprature38.01o
Max Temprature38.01o
Humidity22
Wind Speed2.34 m/h
Sun Rise05:29:05
Sun Set19:14:04
Current Time: 24-Jul-2021 15:04:12
Lat/Lon: 30.0754, 71.1921




Muzaffargarh's Geo Location



Muzaffargarh's Weather Forecast

Time Overall Temp Min Temp Max Temp Humidity Wind Speed Rain
24-Jul-2021 (Sat)
17:00:00 few clouds 39.600 39.600 42.780 23 2.67 m/h 0 %
20:00:00 scattered clouds 39.090 39.090 39.630 29 4.43 m/h 0 %
23:00:00 scattered clouds 38.020 38.020 38.020 36 3.76 m/h 0 %
25-Jul-2021 (Sun)
02:00:00 clear sky 36.560 36.560 36.560 41 3.39 m/h 0 %
05:00:00 clear sky 35.590 35.590 35.590 43 3.27 m/h 0 %
08:00:00 clear sky 38.440 38.440 38.440 32 3.69 m/h 0 %
11:00:00 clear sky 42.730 42.730 42.730 25 2.98 m/h 0 %
14:00:00 clear sky 45.390 45.390 45.390 20 4.11 m/h 0 %
17:00:00 clear sky 45.220 45.220 45.220 19 4.09 m/h 0 %
20:00:00 clear sky 42.370 42.370 42.370 24 3.68 m/h 0 %
23:00:00 few clouds 40.390 40.390 40.390 28 7.29 m/h 0 %
26-Jul-2021 (Mon)
02:00:00 scattered clouds 37.300 37.300 37.300 39 8.41 m/h 0 %
05:00:00 scattered clouds 35.920 35.920 35.920 43 8.06 m/h 0 %
08:00:00 broken clouds 37.390 37.390 37.390 40 8.61 m/h 0 %
11:00:00 scattered clouds 42.630 42.630 42.630 27 7.78 m/h 0 %
14:00:00 few clouds 45.280 45.280 45.280 22 6.93 m/h 0 %
17:00:00 broken clouds 43.740 43.740 43.740 24 7.31 m/h 0 %
20:00:00 broken clouds 40.580 40.580 40.580 31 8.12 m/h 0 %
23:00:00 overcast clouds 38.070 38.070 38.070 37 9.06 m/h 0 %
27-Jul-2021 (Tue)
02:00:00 overcast clouds 35.660 35.660 35.660 45 8.81 m/h 0 %
05:00:00 overcast clouds 32.290 32.290 32.290 57 9.23 m/h 0 %
08:00:00 overcast clouds 33.110 33.110 33.110 55 9.16 m/h 0 %
11:00:00 overcast clouds 37.840 37.840 37.840 40 7.48 m/h 0 %
14:00:00 overcast clouds 41.520 41.520 41.520 32 7.43 m/h 0 %
17:00:00 overcast clouds 39.820 39.820 39.820 34 8.93 m/h 0 %
20:00:00 broken clouds 36.220 36.220 36.220 43 7.89 m/h 0 %
23:00:00 overcast clouds 33.910 33.910 33.910 51 7.7 m/h 0 %
28-Jul-2021 (Wed)
02:00:00 broken clouds 32.270 32.270 32.270 57 7.17 m/h 0 %
05:00:00 broken clouds 31.110 31.110 31.110 62 6.41 m/h 0 %
08:00:00 clear sky 32.700 32.700 32.700 55 6.88 m/h 0 %
11:00:00 clear sky 37.630 37.630 37.630 40 5.33 m/h 0 %
14:00:00 broken clouds 40.580 40.580 40.580 33 5.02 m/h 0 %
17:00:00 broken clouds 39.870 39.870 39.870 34 5.02 m/h 0 %
20:00:00 overcast clouds 37.660 37.660 37.660 38 6.66 m/h 0 %
23:00:00 light rain 35.560 35.560 35.560 45 5.22 m/h 58 %
29-Jul-2021 (Thu)
02:00:00 light rain 33.870 33.870 33.870 51 3.82 m/h 63 %
05:00:00 broken clouds 33.400 33.400 33.400 52 2.12 m/h 0 %
08:00:00 overcast clouds 34.680 34.680 34.680 48 1.82 m/h 0 %
11:00:00 overcast clouds 37.830 37.830 37.830 40 1.79 m/h 0 %
14:00:00 overcast clouds 39.720 39.720 39.720 35 2.11 m/h 0 %

Famous Cities (60)